Decoded Metar for GCXO (TENERIFE in SPAIN) (IATA:TFN) | Meteo·Mobile Aviation Weather
aviador You're here:

GCXO Decoded Metar

TENERIFE in SPAIN
Report Time2019-01-23 07:00:00
UTC Time2019-01-23 07:18:42
Flight Rules mvfr MVFR
Wind030° at 05 kt
W.Decomp.*RWY 12: 0.4 kt HW 5 kt LCW
W.Rank030° ranks 23
Current wind is below 030° avg. (6.4)
Visibility9999 m
Phenomena:N/A
Clouds:Overcast 023 Hf
Expected CloudBase > 1,600 ft AGL from Temp-Dew spread
Ceiling2,300 ft
Temp11°C (ISA 0)
Dew Point07°C (77% RH)
AAT8.5°C
QNH1026 hPa
Density Alt1,791 ft
Elevation2,073 ft
Report Wrong Elevation
Raw Report
GCXO 230700Z 03005KT 340V070 9999 OVC023 11/07 Q1026 NOSIG=

Extra information for GCXO:More info

Metar Taf Metar & Taf Last 4 Metars F.Rules Stats Wind Profile Meteogram Temp Stats Airport Information Weather charts Add Link Nearby VenuesMetar ALERT Operation Metar Decoded Social comments